createdAt,value
2018-09-09T00:00:07.035Z,0.80
2018-09-09T00:02:35.543Z,0.53
2018-09-09T00:05:04.391Z,0.50
2018-09-09T00:07:32.899Z,0.57
2018-09-09T00:10:01.525Z,0.70
2018-09-09T00:12:30.038Z,1.37
2018-09-09T00:14:58.514Z,0.57
2018-09-09T00:17:26.983Z,0.42
2018-09-09T00:19:55.207Z,0.53
2018-09-09T00:22:23.707Z,0.40
2018-09-09T00:24:52.313Z,0.57
2018-09-09T00:27:20.804Z,0.70
2018-09-09T00:29:49.910Z,0.53
2018-09-09T00:32:18.435Z,0.45
2018-09-09T00:34:46.983Z,1.07
2018-09-09T00:37:15.615Z,0.57
2018-09-09T00:39:44.131Z,0.78
2018-09-09T00:42:13.380Z,0.62
2018-09-09T00:44:41.976Z,0.70
2018-09-09T00:47:10.692Z,0.80
2018-09-09T00:49:44.558Z,1.07
2018-09-09T00:52:18.540Z,0.85
2018-09-09T00:54:46.975Z,0.70
2018-09-09T00:57:15.477Z,0.60
2018-09-09T00:59:43.954Z,0.50
2018-09-09T01:02:12.451Z,0.60
2018-09-09T01:04:40.955Z,0.50
2018-09-09T01:07:09.428Z,0.50
2018-09-09T01:09:37.943Z,0.65
2018-09-09T01:12:06.464Z,0.70
2018-09-09T01:14:35.332Z,0.85
2018-09-09T01:17:03.853Z,0.70
2018-09-09T01:19:32.412Z,0.62
2018-09-09T01:22:01.004Z,0.45
2018-09-09T01:24:29.487Z,0.57
2018-09-09T01:26:58.053Z,0.60
2018-09-09T01:29:26.224Z,0.55
2018-09-09T01:31:54.829Z,0.60
2018-09-09T01:34:23.422Z,0.85
2018-09-09T01:36:52.028Z,0.40
2018-09-09T01:39:20.611Z,0.60
2018-09-09T01:41:49.231Z,0.55
2018-09-09T01:44:17.790Z,0.50
2018-09-09T01:46:46.407Z,0.80
2018-09-09T01:49:14.615Z,0.45
2018-09-09T01:51:43.239Z,0.50
2018-09-09T01:54:11.864Z,0.50
2018-09-09T01:56:40.491Z,0.60
2018-09-09T01:59:09.000Z,0.70
2018-09-09T02:01:37.532Z,0.60
2018-09-09T02:04:06.124Z,0.53
2018-09-09T02:06:34.613Z,0.50
2018-09-09T02:09:03.305Z,0.70
2018-09-09T02:11:31.827Z,0.53
2018-09-09T02:14:00.456Z,0.50
2018-09-09T02:16:29.098Z,0.55
2018-09-09T02:18:57.299Z,0.50
2018-09-09T02:21:25.889Z,0.60
2018-09-09T02:23:54.452Z,0.50
2018-09-09T02:26:23.053Z,0.60
2018-09-09T02:28:51.622Z,0.70
2018-09-09T02:31:20.199Z,0.70
2018-09-09T02:33:48.890Z,0.75
2018-09-09T02:36:17.448Z,0.60
2018-09-09T02:38:45.663Z,0.60
2018-09-09T02:41:14.242Z,0.50
2018-09-09T02:43:42.907Z,0.50
2018-09-09T02:46:11.435Z,0.98
2018-09-09T02:48:39.959Z,0.53
2018-09-09T02:51:08.591Z,0.60
2018-09-09T02:53:37.129Z,0.75
2018-09-09T02:56:10.410Z,0.78
2018-09-09T02:58:38.991Z,0.60
2018-09-09T03:01:07.795Z,0.53
2018-09-09T03:03:36.256Z,0.50
2018-09-09T03:06:05.144Z,1.00
2018-09-09T03:08:33.408Z,0.80
2018-09-09T03:11:07.185Z,0.65
2018-09-09T03:13:35.909Z,0.53
2018-09-09T03:16:04.091Z,0.50
2018-09-09T03:18:32.295Z,0.65
2018-09-09T03:21:00.876Z,0.70
2018-09-09T03:23:30.030Z,0.68
2018-09-09T03:25:59.002Z,0.78
2018-09-09T03:28:27.431Z,0.60
2018-09-09T03:30:56.044Z,0.72
2018-09-09T03:33:24.633Z,0.88
2018-09-09T03:35:53.268Z,0.60
2018-09-09T03:38:21.427Z,0.50
2018-09-09T03:40:50.149Z,0.60
2018-09-09T03:43:18.727Z,0.70
2018-09-09T03:45:47.484Z,0.80
2018-09-09T03:48:15.684Z,0.50
2018-09-09T03:50:44.172Z,0.62
2018-09-09T03:53:12.744Z,0.60
2018-09-09T03:55:41.270Z,0.70
2018-09-09T03:58:09.797Z,0.55
2018-09-09T04:00:38.370Z,0.90
2018-09-09T04:03:06.678Z,0.70
2018-09-09T04:05:35.301Z,0.60
2018-09-09T04:08:03.853Z,0.62
2018-09-09T04:10:32.399Z,0.50
2018-09-09T04:13:00.578Z,0.60
2018-09-09T04:15:29.140Z,0.50
2018-09-09T04:17:57.697Z,0.70
2018-09-09T04:20:26.235Z,0.60
2018-09-09T04:22:54.868Z,0.65
2018-09-09T04:25:23.427Z,0.50
2018-09-09T04:27:52.058Z,0.68
2018-09-09T04:30:20.303Z,0.70
2018-09-09T04:32:48.808Z,0.60
2018-09-09T04:35:17.309Z,0.70
2018-09-09T04:37:45.974Z,0.60
2018-09-09T04:40:14.180Z,0.42
2018-09-09T04:42:42.734Z,0.50
2018-09-09T04:45:11.391Z,1.30
2018-09-09T04:47:40.115Z,0.90
2018-09-09T04:50:08.727Z,0.60
2018-09-09T04:52:37.369Z,0.50
2018-09-09T04:55:05.780Z,0.75
2018-09-09T04:57:34.323Z,0.60
2018-09-09T05:00:02.967Z,0.60
2018-09-09T05:02:31.658Z,0.55
2018-09-09T05:05:00.114Z,0.60
2018-09-09T05:07:28.653Z,0.80
2018-09-09T05:09:57.113Z,0.50
2018-09-09T05:12:25.708Z,0.60
2018-09-09T05:14:54.223Z,0.50
2018-09-09T05:17:22.672Z,0.80
2018-09-09T05:19:51.140Z,0.90
2018-09-09T05:22:19.605Z,0.57
2018-09-09T05:24:48.053Z,0.60
2018-09-09T05:27:16.578Z,0.95
2018-09-09T05:29:45.041Z,0.57
2018-09-09T05:32:13.496Z,0.60
2018-09-09T05:34:41.978Z,0.70
2018-09-09T05:37:10.444Z,0.85
2018-09-09T05:39:38.913Z,0.60
2018-09-09T05:42:07.134Z,0.75
2018-09-09T05:44:35.695Z,0.65
2018-09-09T05:47:04.342Z,1.02
2018-09-09T05:49:32.951Z,0.60
2018-09-09T05:52:01.250Z,0.75
2018-09-09T05:54:29.828Z,0.70
2018-09-09T05:56:58.323Z,0.50
2018-09-09T05:59:26.911Z,0.50
2018-09-09T06:01:55.446Z,0.50
2018-09-09T06:04:23.631Z,1.15
2018-09-09T06:06:52.060Z,0.68
2018-09-09T06:09:20.536Z,0.62
2018-09-09T06:11:48.976Z,0.50
2018-09-09T06:14:17.603Z,0.50
2018-09-09T06:16:46.093Z,0.50
2018-09-09T06:19:14.634Z,0.50
2018-09-09T06:21:43.238Z,0.57
2018-09-09T06:24:11.809Z,0.50
2018-09-09T06:26:40.361Z,0.60
2018-09-09T06:29:08.841Z,0.50
2018-09-09T06:31:37.317Z,0.70
2018-09-09T06:34:05.910Z,0.40
2018-09-09T06:36:34.411Z,0.40
2018-09-09T06:39:05.183Z,0.60
2018-09-09T06:41:33.796Z,0.47
2018-09-09T06:44:02.076Z,0.40
2018-09-09T06:46:30.650Z,0.50
2018-09-09T06:48:59.168Z,0.68
2018-09-09T06:51:27.676Z,0.55
2018-09-09T06:53:56.309Z,0.50
2018-09-09T06:56:25.778Z,0.53
2018-09-09T06:58:54.340Z,0.40
2018-09-09T07:01:22.951Z,0.50
2018-09-09T07:03:52.315Z,0.50
2018-09-09T07:06:20.926Z,0.40
2018-09-09T07:08:49.581Z,0.40
2018-09-09T07:11:18.110Z,0.42
2018-09-09T07:13:47.229Z,0.68
2018-09-09T07:16:15.747Z,0.68
2018-09-09T07:18:44.367Z,0.88
2018-09-09T07:21:12.977Z,0.50
2018-09-09T07:23:41.600Z,0.50
2018-09-09T07:26:10.079Z,0.42
2018-09-09T07:28:39.756Z,0.50
2018-09-09T07:31:10.066Z,0.70
2018-09-09T07:33:38.714Z,0.40
2018-09-09T07:36:08.376Z,0.37
2018-09-09T07:38:37.036Z,0.53
2018-09-09T07:41:05.580Z,0.68
2018-09-09T07:43:35.184Z,0.37
2018-09-09T07:46:03.842Z,0.42
2018-09-09T07:48:32.835Z,0.60
2018-09-09T07:51:02.390Z,0.40
2018-09-09T07:53:31.237Z,0.40
2018-09-09T07:56:03.549Z,0.50
2018-09-09T07:58:32.196Z,0.30
2018-09-09T08:01:00.930Z,0.30
2018-09-09T08:03:29.451Z,0.45
2018-09-09T08:05:57.955Z,0.35
2018-09-09T08:08:26.406Z,0.60
2018-09-09T08:10:54.931Z,0.40
2018-09-09T08:13:23.510Z,0.40
2018-09-09T08:15:52.052Z,0.30
2018-09-09T08:18:20.679Z,0.30
2018-09-09T08:20:49.158Z,0.40
2018-09-09T08:23:17.648Z,0.40
2018-09-09T08:25:46.206Z,0.30
2018-09-09T08:28:15.082Z,0.37
2018-09-09T08:30:43.779Z,0.50
2018-09-09T08:33:12.304Z,0.30
2018-09-09T08:35:40.821Z,0.53
2018-09-09T08:38:09.363Z,0.30
2018-09-09T08:40:37.552Z,0.20
2018-09-09T08:43:06.105Z,0.30
2018-09-09T08:45:34.665Z,0.40
2018-09-09T08:48:03.195Z,0.33
2018-09-09T08:50:31.934Z,0.53
2018-09-09T08:53:00.524Z,0.30
2018-09-09T08:55:29.589Z,0.20
2018-09-09T08:57:58.159Z,0.30
2018-09-09T09:00:26.743Z,0.20
2018-09-09T09:02:55.228Z,0.20
2018-09-09T09:05:23.827Z,0.25
2018-09-09T09:07:52.440Z,0.20
2018-09-09T09:10:21.020Z,0.20
2018-09-09T09:12:49.760Z,0.20
2018-09-09T09:15:18.383Z,0.20
2018-09-09T09:17:47.955Z,0.30
2018-09-09T09:20:16.455Z,0.30
2018-09-09T09:22:44.944Z,0.20
2018-09-09T09:25:13.451Z,0.20
2018-09-09T09:27:42.798Z,0.23
2018-09-09T09:30:16.172Z,0.40
2018-09-09T09:32:57.341Z,0.17
2018-09-09T09:35:31.275Z,0.35
2018-09-09T09:37:59.996Z,0.23
2018-09-09T09:40:28.619Z,0.20
2018-09-09T09:42:57.108Z,0.20
2018-09-09T09:45:26.915Z,0.20
2018-09-09T09:47:56.928Z,0.20
2018-09-09T09:50:25.536Z,0.42
2018-09-09T09:52:54.950Z,0.20
2018-09-09T09:55:23.669Z,0.20
2018-09-09T09:57:52.152Z,0.20
2018-09-09T10:00:26.501Z,0.20
2018-09-09T10:02:55.078Z,0.35
2018-09-09T10:05:23.601Z,0.20
2018-09-09T10:07:52.225Z,0.20
2018-09-09T10:10:21.022Z,0.20
2018-09-09T10:12:49.230Z,0.20
2018-09-09T10:15:17.917Z,0.20
2018-09-09T10:17:46.439Z,0.50
2018-09-09T10:20:15.150Z,0.20
2018-09-09T10:22:43.273Z,0.20
2018-09-09T10:25:11.924Z,0.20
2018-09-09T10:27:40.507Z,0.30
2018-09-09T10:30:09.079Z,0.30
2018-09-09T10:32:37.609Z,0.20
2018-09-09T10:35:08.416Z,0.40
2018-09-09T10:37:36.863Z,0.20
2018-09-09T10:40:05.127Z,0.47
2018-09-09T10:42:33.630Z,0.20
2018-09-09T10:45:02.120Z,0.10
2018-09-09T10:47:30.674Z,0.20
2018-09-09T10:49:59.228Z,0.23
2018-09-09T10:52:27.667Z,0.20
2018-09-09T10:54:56.338Z,0.37
2018-09-09T10:57:24.844Z,0.20
2018-09-09T10:59:53.429Z,0.55
2018-09-09T11:02:22.007Z,0.13
2018-09-09T11:04:50.470Z,0.30
2018-09-09T11:07:19.320Z,0.10
2018-09-09T11:09:47.929Z,0.10
2018-09-09T11:12:16.488Z,0.20
2018-09-09T11:14:45.012Z,0.20
2018-09-09T11:17:13.536Z,0.40
2018-09-09T11:19:42.040Z,0.20
2018-09-09T11:22:10.656Z,0.20
2018-09-09T11:24:39.295Z,0.10
2018-09-09T11:27:07.385Z,0.10
2018-09-09T11:29:35.581Z,0.13
2018-09-09T11:32:04.283Z,0.28
2018-09-09T11:34:32.843Z,0.10
2018-09-09T11:37:01.345Z,0.10
2018-09-09T11:39:29.898Z,0.10
2018-09-09T11:41:58.108Z,0.10
2018-09-09T11:44:26.650Z,0.20
2018-09-09T11:46:54.868Z,0.10
2018-09-09T11:49:23.485Z,0.20
2018-09-09T11:51:52.036Z,0.10
2018-09-09T11:54:20.590Z,0.20
2018-09-09T11:56:49.077Z,0.10
2018-09-09T11:59:17.616Z,0.20
2018-09-09T12:01:46.207Z,0.20
2018-09-09T12:04:14.740Z,0.20
2018-09-09T12:06:43.384Z,0.30
2018-09-09T12:09:12.140Z,0.10
2018-09-09T12:11:40.663Z,0.10
2018-09-09T12:14:09.289Z,0.10
2018-09-09T12:16:38.073Z,0.30
2018-09-09T12:19:06.652Z,0.20
2018-09-09T12:21:35.271Z,0.30
2018-09-09T12:24:11.176Z,0.20
2018-09-09T12:26:39.729Z,0.20
2018-09-09T12:29:08.293Z,0.10
2018-09-09T12:31:36.825Z,0.20
2018-09-09T12:34:05.305Z,0.10
2018-09-09T12:36:33.911Z,0.10
2018-09-09T12:39:02.478Z,0.30
2018-09-09T12:41:31.001Z,0.20
2018-09-09T12:44:04.680Z,0.30
2018-09-09T12:46:38.483Z,0.15
2018-09-09T12:49:08.105Z,0.25
2018-09-09T12:51:36.752Z,0.20
2018-09-09T12:54:05.361Z,0.25
2018-09-09T12:56:34.005Z,0.10
2018-09-09T12:59:03.675Z,0.10
2018-09-09T13:01:35.729Z,0.10
2018-09-09T13:04:04.440Z,0.10
2018-09-09T13:06:32.993Z,0.10
2018-09-09T13:09:01.564Z,0.17
2018-09-09T13:11:30.150Z,0.10
2018-09-09T13:13:58.737Z,0.20
2018-09-09T13:16:27.286Z,0.20
2018-09-09T13:18:55.796Z,0.10
2018-09-09T13:21:24.395Z,0.13
2018-09-09T13:23:52.961Z,0.40
2018-09-09T13:26:21.592Z,0.40
2018-09-09T13:28:50.071Z,0.10
2018-09-09T13:31:18.646Z,0.10
2018-09-09T13:33:47.357Z,0.10
2018-09-09T13:36:15.895Z,0.20
2018-09-09T13:38:44.497Z,0.10
2018-09-09T13:41:12.695Z,0.10
2018-09-09T13:43:41.318Z,0.42
2018-09-09T13:46:09.933Z,0.20
2018-09-09T13:48:38.192Z,0.20
2018-09-09T13:51:06.749Z,0.20
2018-09-09T13:53:35.376Z,0.20
2018-09-09T13:56:03.912Z,0.20
2018-09-09T13:58:32.409Z,0.10
2018-09-09T14:01:00.920Z,0.20
2018-09-09T14:03:29.405Z,0.28
2018-09-09T14:05:57.852Z,0.37
2018-09-09T14:08:27.292Z,0.30
2018-09-09T14:10:55.865Z,0.10
2018-09-09T14:13:24.583Z,0.42
2018-09-09T14:15:53.148Z,0.17
2018-09-09T14:18:21.711Z,0.28
2018-09-09T14:20:50.394Z,0.20
2018-09-09T14:23:18.975Z,0.10
2018-09-09T14:25:47.569Z,0.10
2018-09-09T14:28:15.753Z,0.10
2018-09-09T14:30:43.915Z,0.10
2018-09-09T14:33:12.404Z,0.10
2018-09-09T14:48:21.418Z,0.10
2018-09-09T14:50:49.977Z,0.13
2018-09-09T14:53:18.739Z,0.10
2018-09-09T14:55:47.358Z,0.40
2018-09-09T14:58:16.614Z,0.37
2018-09-09T15:00:45.212Z,0.30
2018-09-09T15:03:13.806Z,0.20
2018-09-09T15:05:42.436Z,0.10
2018-09-09T15:08:11.386Z,0.10
2018-09-09T15:10:40.040Z,0.10
2018-09-09T15:13:11.700Z,0.13
2018-09-09T15:15:41.632Z,0.10
2018-09-09T15:18:14.865Z,0.10
2018-09-09T15:20:43.827Z,0.28
2018-09-09T15:23:12.453Z,0.10
2018-09-09T15:25:41.137Z,0.10
2018-09-09T15:28:09.864Z,0.47
2018-09-09T15:30:38.462Z,0.20
2018-09-09T15:33:09.102Z,0.35
2018-09-09T15:35:37.596Z,0.20
2018-09-09T15:38:07.430Z,0.10
2018-09-09T15:40:35.973Z,0.10
2018-09-09T15:46:24.190Z,0.30
2018-09-09T15:48:53.032Z,0.10
2018-09-09T15:51:21.645Z,0.10
2018-09-09T15:53:50.154Z,0.10
2018-09-09T15:56:18.649Z,0.20
2018-09-09T15:58:47.320Z,0.10
2018-09-09T16:01:15.879Z,0.10
2018-09-09T16:03:44.436Z,0.10
2018-09-09T16:06:13.065Z,0.10
2018-09-09T16:08:42.764Z,0.10
2018-09-09T16:11:11.239Z,0.10
2018-09-09T16:13:39.780Z,0.17
2018-09-09T16:16:08.285Z,0.10
2018-09-09T16:18:36.997Z,0.10
2018-09-09T16:21:05.512Z,0.30
2018-09-09T16:23:34.161Z,0.10
2018-09-09T16:26:02.760Z,0.10
2018-09-09T16:28:31.598Z,0.10
2018-09-09T16:31:00.135Z,0.10
2018-09-09T16:33:28.644Z,0.10
2018-09-09T16:35:57.308Z,0.30
2018-09-09T16:38:26.674Z,0.10
2018-09-09T16:40:55.232Z,0.10
2018-09-09T16:43:23.796Z,0.10
2018-09-09T16:45:52.560Z,0.10
2018-09-09T16:48:21.192Z,0.10
2018-09-09T16:50:53.301Z,0.10
2018-09-09T16:53:22.422Z,0.10
2018-09-09T16:55:51.287Z,0.10
2018-09-09T16:58:19.818Z,0.23
2018-09-09T17:00:48.301Z,0.20
2018-09-09T17:03:16.864Z,0.10
2018-09-09T17:05:47.097Z,0.10
2018-09-09T17:08:15.633Z,0.10
2018-09-09T17:10:44.313Z,0.20
2018-09-09T17:13:13.411Z,0.20
2018-09-09T17:15:41.940Z,0.15
2018-09-09T17:18:10.817Z,0.10
2018-09-09T17:20:41.229Z,0.20
2018-09-09T17:23:09.877Z,0.10
2018-09-09T17:25:39.029Z,0.10
2018-09-09T17:28:07.651Z,0.10
2018-09-09T17:30:36.204Z,0.40
2018-09-09T17:33:04.722Z,0.10
2018-09-09T17:35:35.408Z,0.10
2018-09-09T17:38:04.943Z,0.10
2018-09-09T17:40:33.611Z,0.20
2018-09-09T17:43:02.655Z,0.20
2018-09-09T17:45:32.288Z,0.15
2018-09-09T17:48:01.636Z,0.20
2018-09-09T17:50:31.268Z,0.45
2018-09-09T17:53:00.613Z,0.10
2018-09-09T17:55:31.213Z,0.13
2018-09-09T17:58:01.986Z,0.10
2018-09-09T18:00:30.810Z,0.20
2018-09-09T18:03:00.120Z,0.13
2018-09-09T18:05:28.809Z,0.33
2018-09-09T18:07:58.380Z,0.20
2018-09-09T18:10:27.295Z,0.20
2018-09-09T18:12:56.036Z,0.13
2018-09-09T18:15:26.029Z,0.20
2018-09-09T18:17:54.842Z,0.23
2018-09-09T18:20:24.393Z,0.13
2018-09-09T18:22:52.935Z,0.10
2018-09-09T18:25:21.408Z,0.20
2018-09-09T18:27:50.923Z,0.10
2018-09-09T18:30:19.941Z,0.20
2018-09-09T18:32:50.037Z,0.20
2018-09-09T18:35:18.528Z,0.25
2018-09-09T18:37:47.234Z,0.20
2018-09-09T18:40:15.760Z,0.20
2018-09-09T18:42:44.311Z,0.30
2018-09-09T18:45:12.860Z,0.20
2018-09-09T18:47:42.146Z,0.10
2018-09-09T18:50:10.759Z,0.20
2018-09-09T18:52:40.524Z,0.10
2018-09-09T18:55:09.294Z,0.15
2018-09-09T18:57:38.049Z,0.10
2018-09-09T19:00:07.175Z,0.20
2018-09-09T19:02:35.866Z,0.20
2018-09-09T19:05:06.137Z,0.20
2018-09-09T19:07:34.721Z,0.20
2018-09-09T19:10:03.307Z,0.20
2018-09-09T19:12:32.098Z,0.20
2018-09-09T19:15:00.639Z,0.20
2018-09-09T19:17:29.126Z,0.20
2018-09-09T19:20:00.540Z,0.20
2018-09-09T19:22:29.917Z,0.20
2018-09-09T19:24:58.528Z,0.20
2018-09-09T19:27:27.075Z,0.20
2018-09-09T19:29:55.602Z,0.20
2018-09-09T19:32:24.141Z,0.30
2018-09-09T19:35:29.412Z,0.20
2018-09-09T19:38:08.625Z,0.20
2018-09-09T19:40:40.117Z,0.30
2018-09-09T19:43:08.732Z,0.20
2018-09-09T19:45:38.253Z,0.20
2018-09-09T19:48:06.806Z,0.20
2018-09-09T19:50:35.452Z,0.20
2018-09-09T19:53:04.077Z,0.10
2018-09-09T19:55:34.666Z,0.20
2018-09-09T19:58:03.264Z,0.20
2018-09-09T20:00:31.793Z,0.30
2018-09-09T20:03:00.892Z,0.20
2018-09-09T20:05:30.345Z,0.20
2018-09-09T20:07:59.025Z,0.30
2018-09-09T20:10:35.508Z,0.20
2018-09-09T20:13:04.226Z,0.20
2018-09-09T20:15:32.716Z,0.20
2018-09-09T20:18:01.218Z,0.20
2018-09-09T20:20:29.921Z,0.20
2018-09-09T20:22:58.604Z,0.10
2018-09-09T20:25:27.194Z,0.20
2018-09-09T20:27:56.826Z,0.10
2018-09-09T20:30:25.373Z,0.20
2018-09-09T20:32:53.882Z,0.20
2018-09-09T20:35:23.469Z,0.20
2018-09-09T20:37:52.006Z,0.20
2018-09-09T20:40:21.264Z,0.30
2018-09-09T20:42:50.524Z,0.20
2018-09-09T20:45:20.072Z,0.23
2018-09-09T20:47:48.841Z,0.30
2018-09-09T20:50:17.389Z,0.30
2018-09-09T20:52:45.988Z,0.30
2018-09-09T20:55:14.623Z,0.20
2018-09-09T20:57:46.212Z,0.20
2018-09-09T21:03:17.529Z,0.20
2018-09-09T21:05:46.216Z,0.20
2018-09-09T21:08:15.904Z,0.20
2018-09-09T21:10:44.403Z,0.33
2018-09-09T21:13:13.709Z,0.42
2018-09-09T21:15:42.494Z,0.25
2018-09-09T21:18:11.087Z,0.40
2018-09-09T21:20:39.622Z,0.40
2018-09-09T21:25:42.152Z,0.42
2018-09-09T21:28:10.840Z,0.40
2018-09-09T21:30:39.359Z,0.37
2018-09-09T21:33:07.871Z,0.60
2018-09-09T21:35:36.425Z,0.70
2018-09-09T21:38:05.137Z,0.42
2018-09-09T21:40:33.686Z,0.53
2018-09-09T21:43:02.309Z,0.40
2018-09-09T21:45:30.872Z,0.40
2018-09-09T21:47:59.461Z,0.30
2018-09-09T21:50:27.971Z,0.30
2018-09-09T21:52:56.546Z,0.37
2018-09-09T21:55:25.061Z,0.50
2018-09-09T21:58:06.258Z,0.57
2018-09-09T22:00:40.635Z,0.30
2018-09-09T22:03:09.371Z,0.50
2018-09-09T22:05:37.877Z,0.40
2018-09-09T22:08:07.386Z,0.30
2018-09-09T22:10:36.631Z,0.37
2018-09-09T22:13:05.113Z,0.50
2018-09-09T22:15:33.627Z,0.68
2018-09-09T22:18:02.113Z,0.40
2018-09-09T22:20:31.820Z,0.50
2018-09-09T22:23:00.389Z,0.47
2018-09-09T22:25:28.926Z,0.30
2018-09-09T22:27:57.473Z,0.30
2018-09-09T22:30:26.064Z,0.40
2018-09-09T22:32:54.575Z,0.50
2018-09-09T22:35:24.066Z,0.37
2018-09-09T22:37:53.320Z,0.70
2018-09-09T22:40:25.694Z,0.35
2018-09-09T22:42:54.424Z,0.55
2018-09-09T22:45:22.914Z,0.50
2018-09-09T22:47:51.447Z,0.85
2018-09-09T22:50:19.997Z,0.72
2018-09-09T22:52:48.568Z,0.50
2018-09-09T22:55:17.104Z,0.30
2018-09-09T22:57:45.599Z,0.65
2018-09-09T23:00:14.200Z,0.33
2018-09-09T23:02:43.258Z,0.82
2018-09-09T23:05:11.901Z,0.62
